Time;durP1;ratioP1;P1;durP2;ratioP2;P2;SDS_P1;SDS_P2;PMS_P1;PMS_P2;Temp;Humidity;BMP_temperature;BMP_pressure;BME280_temperature;BME280_humidity;BME280_pressure;Samples;Min_cycle;Max_cycle;Signal;HPM_P1;HPM_P2
2023/09/12 00:01:59;;;;;;;7.53;2.10;;;;;;;15.68;85.28;100567.97;5051783;28;20021;-64
2023/09/12 00:04:24;;;;;;;5.05;2.55;;;;;;;15.94;85.85;100638.75;5051883;28;20029;-68
2023/09/12 00:06:50;;;;;;;3.60;2.17;;;;;;;15.91;86.90;100636.09;5052109;28;20021;-65
2023/09/12 00:09:15;;;;;;;5.90;2.78;;;;;;;15.92;86.21;100623.97;5051132;28;20025;-69
2023/09/12 00:11:41;;;;;;;4.88;2.58;;;;;;;16.11;85.76;100620.81;5051896;28;20028;-66
2023/09/12 00:14:09;;;;;;;6.85;2.30;;;;;;;16.18;85.33;100642.63;5051632;28;20033;-67
2023/09/12 00:16:34;;;;;;;5.22;2.42;;;;;;;16.07;85.55;100645.03;5052144;28;20025;-66
2023/09/12 00:18:59;;;;;;;8.60;2.55;;;;;;;15.73;85.08;100558.53;5051495;28;20028;-68
2023/09/12 00:21:25;;;;;;;8.63;2.30;;;;;;;16.19;84.24;100620.94;5052033;28;20029;-68
2023/09/12 00:23:50;;;;;;;5.32;2.33;;;;;;;15.68;85.23;100574.06;5051749;28;20400;-67
2023/09/12 00:26:16;;;;;;;4.93;1.85;;;;;;;16.11;85.48;100636.47;5051933;28;20025;-68
2023/09/12 00:28:41;;;;;;;6.03;2.28;;;;;;;16.24;84.98;100632.31;5051415;28;20500;-70
2023/09/12 00:31:06;;;;;;;3.50;2.30;;;;;;;16.20;85.24;100608.78;5051440;28;20029;-68
2023/09/12 00:33:32;;;;;;;7.28;2.13;;;;;;;16.23;85.50;100648.78;5051805;28;20036;-66
2023/09/12 00:35:58;;;;;;;6.05;2.38;;;;;;;16.22;85.83;100634.00;5051509;28;20480;-67
2023/09/12 00:38:24;;;;;;;5.70;1.83;;;;;;;16.37;84.85;100635.13;5051394;28;20063;-71
2023/09/12 00:40:49;;;;;;;5.53;2.20;;;;;;;16.36;84.80;100642.03;5051393;28;20061;-66
2023/09/12 00:43:16;;;;;;;4.38;2.20;;;;;;;16.44;84.61;100636.97;5051323;28;20021;-65
2023/09/12 00:45:41;;;;;;;7.78;2.10;;;;;;;16.24;84.18;100629.72;5051258;28;20024;-66
2023/09/12 00:48:08;;;;;;;4.15;2.13;;;;;;;16.42;85.33;100638.66;5051222;28;20499;-67
2023/09/12 00:50:34;;;;;;;5.07;2.40;;;;;;;16.50;85.52;100635.31;5051376;28;20549;-67
2023/09/12 00:53:00;;;;;;;3.65;2.00;;;;;;;16.54;85.48;100636.25;5051139;28;20024;-69
2023/09/12 00:55:26;;;;;;;6.93;2.10;;;;;;;16.01;88.79;100640.63;5051560;28;20075;-67
2023/09/12 00:57:53;;;;;;;8.85;2.28;;;;;;;15.94;89.79;100612.72;5050660;28;20052;-68
2023/09/12 01:00:18;;;;;;;9.32;1.70;;;;;;;16.27;90.58;100639.31;5033523;28;20039;-67
2023/09/12 01:02:46;;;;;;;4.57;1.83;;;;;;;16.39;89.63;100641.25;5051180;28;20112;-65
2023/09/12 01:05:14;;;;;;;5.32;2.22;;;;;;;16.52;87.71;100645.78;5050801;28;20036;-66
2023/09/12 01:07:39;;;;;;;4.40;1.90;;;;;;;16.44;88.14;100643.06;5050826;28;20104;-67
2023/09/12 01:10:06;;;;;;;5.53;1.80;;;;;;;16.25;89.26;100651.41;5050903;28;20112;-69
2023/09/12 01:12:33;;;;;;;8.93;2.00;;;;;;;16.11;88.86;100628.63;5050891;28;20029;-67
2023/09/12 01:14:59;;;;;;;6.47;2.20;;;;;;;16.00;86.03;100640.59;5050917;28;20037;-66
2023/09/12 01:17:25;;;;;;;3.53;2.17;;;;;;;15.78;85.64;100608.06;5050775;28;20459;-66
2023/09/12 01:19:51;;;;;;;5.18;2.50;;;;;;;15.82;85.47;100636.78;5033368;28;20033;-68
2023/09/12 01:23:03;;;;;;;4.28;1.98;;;;;;;15.69;85.63;100643.47;5051207;28;20021;-66
2023/09/12 01:26:06;;;;;;;3.85;1.67;;;;;;;15.74;85.30;100651.38;4950418;29;20419;-67
2023/09/12 01:28:34;;;;;;;5.20;1.67;;;;;;;15.66;85.72;100645.16;4950109;29;20458;-66
2023/09/12 01:31:02;;;;;;;3.38;1.90;;;;;;;15.33;86.85;100622.84;4950011;28;20427;-66
2023/09/12 01:33:28;;;;;;;2.63;1.80;;;;;;;14.88;87.20;100569.94;4934185;29;20049;-69
2023/09/12 01:35:54;;;;;;;6.75;2.22;;;;;;;15.17;88.02;100645.06;4950004;29;20458;-68
2023/09/12 01:38:21;;;;;;;16.98;2.90;;;;;;;14.95;89.05;100652.38;4950128;29;20035;-69
2023/09/12 01:40:52;;;;;;;4.47;2.40;;;;;;;14.87;89.55;100640.94;4949837;29;20478;-67
2023/09/12 01:43:21;;;;;;;4.32;1.88;;;;;;;14.91;89.66;100647.09;4949826;29;20039;-69
2023/09/12 01:45:49;;;;;;;6.63;2.38;;;;;;;14.83;90.02;100642.59;4949829;29;20035;-69
2023/09/12 01:48:19;;;;;;;7.40;2.40;;;;;;;14.79;90.18;100650.28;4950008;29;20079;-65
2023/09/12 01:50:45;;;;;;;4.65;2.30;;;;;;;14.82;89.72;100655.56;4949903;29;20362;-67
2023/09/12 01:53:11;;;;;;;8.00;2.20;;;;;;;14.69;90.53;100637.09;4949754;29;20494;-67
2023/09/12 01:55:37;;;;;;;4.68;2.38;;;;;;;14.69;90.41;100633.59;4949757;29;20051;-67
2023/09/12 01:58:03;;;;;;;5.97;2.03;;;;;;;14.18;91.39;100593.41;4949536;29;20055;-66
2023/09/12 02:00:29;;;;;;;8.00;2.42;;;;;;;14.49;91.64;100644.41;4937627;28;20085;-67
2023/09/12 02:02:55;;;;;;;6.43;2.45;;;;;;;14.41;91.93;100656.31;5050013;28;20044;-70
2023/09/12 02:05:22;;;;;;;4.95;2.40;;;;;;;14.34;91.75;100636.22;5049835;28;20032;-69
2023/09/12 02:07:48;;;;;;;5.53;2.25;;;;;;;14.45;91.14;100642.56;5032382;28;20029;-69
2023/09/12 02:10:14;;;;;;;3.88;2.15;;;;;;;14.60;91.06;100651.56;5049801;28;20036;-66
2023/09/12 02:12:40;;;;;;;4.97;2.38;;;;;;;14.61;90.37;100637.75;5050280;28;20029;-64
2023/09/12 02:15:05;;;;;;;4.80;2.35;;;;;;;14.76;89.66;100652.84;5049927;28;20036;-65
2023/09/12 02:17:31;;;;;;;4.78;2.40;;;;;;;14.72;90.11;100657.94;5049743;28;20021;-65
2023/09/12 02:19:56;;;;;;;8.90;2.03;;;;;;;14.39;90.59;100603.44;5049964;28;20021;-67
2023/09/12 02:22:22;;;;;;;8.32;2.20;;;;;;;14.63;92.33;100657.72;5050044;28;20168;-69
2023/09/12 02:24:47;;;;;;;4.22;1.92;;;;;;;14.57;93.00;100654.97;5049826;28;20031;-69
2023/09/12 02:27:12;;;;;;;4.45;2.00;;;;;;;14.49;93.44;100657.41;5049511;28;20104;-68
2023/09/12 02:29:42;;;;;;;4.72;2.03;;;;;;;14.38;94.44;100657.13;5049622;28;20027;-66
2023/09/12 02:32:07;;;;;;;5.53;2.20;;;;;;;14.37;94.62;100652.75;5052995;28;20032;-67
2023/09/12 02:34:33;;;;;;;3.72;2.35;;;;;;;14.50;93.92;100658.25;5054080;28;20025;-70
2023/09/12 02:36:59;;;;;;;5.05;2.20;;;;;;;14.49;93.84;100653.91;5053962;28;20029;-65
2023/09/12 02:39:24;;;;;;;4.03;2.20;;;;;;;14.29;94.32;100654.28;5054072;28;20048;-67
2023/09/12 02:41:50;;;;;;;4.32;2.05;;;;;;;14.26;94.49;100648.16;5053407;28;20494;-66
2023/09/12 02:44:16;;;;;;;5.22;2.00;;;;;;;14.04;95.36;100637.22;5053464;28;20028;-66
2023/09/12 02:46:41;;;;;;;2.92;1.70;;;;;;;14.04;95.25;100637.22;5053673;28;20025;-65
2023/09/12 02:49:27;;;;;;;2.75;1.98;;;;;;;14.11;95.26;100653.84;5053527;28;20095;-70
2023/09/12 02:51:52;;;;;;;4.63;2.22;;;;;;;14.18;95.22;100658.34;4991673;28;20045;-65
2023/09/12 02:54:18;;;;;;;7.13;2.38;;;;;;;14.41;92.48;100653.72;4991540;28;20058;-70
2023/09/12 02:56:43;;;;;;;4.28;2.05;;;;;;;14.72;89.92;100660.53;4991710;28;20034;-67
2023/09/12 02:59:09;;;;;;;4.50;1.88;;;;;;;14.98;87.89;100652.47;4991621;28;20137;-66
2023/09/12 03:01:34;;;;;;;5.97;2.03;;;;;;;15.10;84.39;100656.16;4991512;28;20034;-67
2023/09/12 03:04:00;;;;;;;3.20;1.75;;;;;;;15.13;84.50;100658.84;4991587;28;20038;-72
2023/09/12 03:06:25;;;;;;;4.35;2.10;;;;;;;14.76;83.78;100588.72;4991603;28;20037;-65
2023/09/12 03:08:51;;;;;;;3.00;1.90;;;;;;;15.11;83.16;100663.13;4991634;28;20057;-64
2023/09/12 03:11:17;;;;;;;6.05;1.80;;;;;;;15.07;81.99;100658.72;4991404;28;20522;-66
2023/09/12 03:13:42;;;;;;;5.88;2.05;;;;;;;15.08;81.77;100661.34;4991452;28;20030;-66
2023/09/12 03:16:11;;;;;;;4.68;2.15;;;;;;;15.12;81.83;100665.75;4991455;28;20065;-67
2023/09/12 03:18:37;;;;;;;3.20;2.03;;;;;;;14.79;81.74;100590.50;4991339;28;20230;-66
2023/09/12 03:21:02;;;;;;;5.60;1.95;;;;;;;15.24;82.43;100666.84;4983847;28;20118;-65
2023/09/12 03:23:28;;;;;;;6.95;2.63;;;;;;;14.80;82.48;100585.34;5017525;28;20594;-72
2023/09/12 03:25:53;;;;;;;4.05;2.17;;;;;;;14.83;82.89;100601.03;5033026;28;20025;-66
2023/09/12 03:28:19;;;;;;;4.03;1.90;;;;;;;15.23;83.36;100666.00;5033150;28;20029;-66
2023/09/12 03:30:44;;;;;;;6.38;2.42;;;;;;;15.24;83.95;100670.34;5032832;28;20048;-67
2023/09/12 03:33:09;;;;;;;9.35;2.40;;;;;;;15.24;84.48;100667.75;5032897;28;20544;-66
2023/09/12 03:35:35;;;;;;;4.50;2.17;;;;;;;14.88;83.50;100608.91;5032810;28;20087;-65
2023/09/12 03:38:01;;;;;;;7.18;2.33;;;;;;;14.88;83.84;100635.78;5032537;28;20116;-66
2023/09/12 03:40:30;;;;;;;7.70;3.05;;;;;;;14.49;84.23;100592.44;5031474;28;20021;-65
2023/09/12 03:42:56;;;;;;;2.95;1.92;;;;;;;14.92;83.99;100675.72;5031114;28;20416;-65
2023/09/12 03:45:22;;;;;;;12.30;2.67;;;;;;;14.89;83.58;100680.84;5032647;28;20033;-64
2023/09/12 03:47:48;;;;;;;3.65;1.80;;;;;;;14.66;83.45;100675.13;5032340;28;20034;-65
2023/09/12 03:50:13;;;;;;;3.28;1.80;;;;;;;14.64;84.06;100685.47;5032675;28;20022;-66
2023/09/12 03:52:39;;;;;;;3.55;2.03;;;;;;;14.71;83.85;100689.09;5032434;28;20565;-67
2023/09/12 03:55:05;;;;;;;4.80;2.00;;;;;;;14.74;83.97;100686.56;5032756;28;20393;-65
2023/09/12 03:57:31;;;;;;;5.97;2.03;;;;;;;14.71;83.84;100684.78;5032403;28;20056;-65
2023/09/12 03:59:57;;;;;;;6.10;1.95;;;;;;;14.36;85.38;100691.69;5014996;28;20033;-68
2023/09/12 04:02:22;;;;;;;6.05;2.03;;;;;;;14.34;85.76;100694.25;5032152;28;20544;-66
2023/09/12 04:04:47;;;;;;;2.40;1.67;;;;;;;14.30;84.85;100697.59;5032254;28;20028;-66
2023/09/12 04:07:13;;;;;;;3.80;1.70;;;;;;;14.39;84.83;100696.94;5032306;28;20104;-72
2023/09/12 04:09:38;;;;;;;4.20;1.90;;;;;;;14.38;84.58;100698.69;5032055;28;20606;-66
2023/09/12 04:12:06;;;;;;;9.13;2.28;;;;;;;14.30;84.62;100689.81;5031932;28;20428;-67
2023/09/12 04:14:33;;;;;;;6.07;1.92;;;;;;;14.43;84.77;100700.50;5032160;28;20060;-66
2023/09/12 04:16:58;;;;;;;6.78;2.40;;;;;;;14.55;84.53;100709.50;5028621;28;20036;-66
2023/09/12 04:19:25;;;;;;;4.20;2.13;;;;;;;14.56;84.88;100695.63;5032213;28;20029;-64
2023/09/12 04:21:50;;;;;;;6.03;2.30;;;;;;;14.63;85.78;100708.78;5032071;28;20037;-68
2023/09/12 04:24:17;;;;;;;5.00;2.28;;;;;;;14.22;86.34;100642.00;5030691;28;20071;-69
2023/09/12 04:26:43;;;;;;;4.57;2.13;;;;;;;14.06;86.58;100614.78;5033004;28;21685;-68
2023/09/12 04:29:09;;;;;;;8.18;2.63;;;;;;;14.56;86.97;100713.81;5041971;28;20031;-66
2023/09/12 04:31:34;;;;;;;4.82;2.10;;;;;;;14.50;87.37;100699.81;5044732;28;20029;-67
2023/09/12 04:34:00;;;;;;;3.97;1.90;;;;;;;14.59;87.36;100705.22;5024578;28;20026;-72
2023/09/12 04:36:25;;;;;;;7.75;2.75;;;;;;;14.64;87.28;100706.25;5031300;28;20029;-66
2023/09/12 04:38:51;;;;;;;5.90;2.45;;;;;;;14.51;87.98;100694.66;5032027;28;20403;-66
2023/09/12 04:41:16;;;;;;;5.65;2.30;;;;;;;14.52;88.41;100695.56;5031762;28;20496;-65
2023/09/12 04:43:46;;;;;;;9.75;2.38;;;;;;;14.25;89.46;100670.63;5049103;28;20048;-66
2023/09/12 04:46:12;;;;;;;8.80;2.90;;;;;;;14.48;89.77;100715.38;5049691;28;20086;-67
2023/09/12 04:48:38;;;;;;;3.97;2.13;;;;;;;14.48;89.42;100706.69;5050877;28;20041;-66
2023/09/12 04:51:04;;;;;;;5.38;2.55;;;;;;;14.47;89.84;100694.56;5033104;28;20029;-72
2023/09/12 04:53:35;;;;;;;4.47;2.60;;;;;;;14.48;89.45;100701.50;5050144;28;20040;-67
2023/09/12 04:56:02;;;;;;;9.13;3.10;;;;;;;14.53;89.76;100711.16;5033037;28;20503;-66
2023/09/12 04:58:27;;;;;;;10.32;2.65;;;;;;;14.60;89.83;100711.31;5050797;28;20109;-68
2023/09/12 05:00:54;;;;;;;6.50;3.13;;;;;;;14.40;90.35;100681.44;5050958;28;20029;-67
2023/09/12 05:03:19;;;;;;;4.53;2.28;;;;;;;14.50;91.22;100715.41;5050783;28;20035;-65
2023/09/12 05:05:46;;;;;;;28.13;4.10;;;;;;;14.03;91.02;100635.47;5049695;28;20033;-66
2023/09/12 05:08:12;;;;;;;10.88;2.83;;;;;;;14.49;91.63;100732.72;5050979;28;20017;-67
2023/09/12 05:10:38;;;;;;;6.60;2.53;;;;;;;14.36;92.59;100696.88;5049688;28;20040;-67
2023/09/12 05:13:04;;;;;;;4.72;2.70;;;;;;;14.51;93.06;100722.38;5050875;28;20107;-67
2023/09/12 05:15:30;;;;;;;5.50;2.50;;;;;;;14.57;93.29;100713.00;5050798;28;20060;-66
2023/09/12 05:17:55;;;;;;;7.10;2.38;;;;;;;14.61;93.64;100719.16;5051126;28;20544;-67
2023/09/12 05:20:21;;;;;;;5.28;2.40;;;;;;;14.64;93.20;100693.25;5050394;28;20435;-73
2023/09/12 05:22:46;;;;;;;4.18;2.60;;;;;;;14.86;93.17;100710.25;5050891;28;20032;-71
2023/09/12 05:25:11;;;;;;;6.07;2.70;;;;;;;14.89;92.99;100699.03;5050684;28;20030;-66
2023/09/12 05:27:37;;;;;;;4.22;2.40;;;;;;;14.66;92.84;100642.22;5050742;28;20107;-66
2023/09/12 05:30:03;;;;;;;6.43;2.45;;;;;;;15.06;93.09;100696.81;5050058;28;20028;-67
2023/09/12 05:32:28;;;;;;;4.10;2.70;;;;;;;14.78;92.95;100618.25;5050580;28;20035;-70
2023/09/12 05:34:53;;;;;;;6.20;2.50;;;;;;;15.27;93.33;100704.22;5050068;28;20498;-65
2023/09/12 05:37:20;;;;;;;4.78;2.53;;;;;;;15.29;93.18;100684.31;5050360;28;20481;-69
2023/09/12 05:39:46;;;;;;;4.15;2.55;;;;;;;15.47;92.72;100706.38;5050383;28;20029;-65
2023/09/12 05:42:12;;;;;;;4.22;2.30;;;;;;;15.60;92.43;100716.19;5050417;28;20035;-67
2023/09/12 05:44:37;;;;;;;4.03;2.22;;;;;;;15.57;92.75;100694.44;5050215;28;20130;-66
2023/09/12 05:47:03;;;;;;;5.85;3.00;;;;;;;15.84;92.41;100714.94;5050397;28;20036;-66
2023/09/12 05:49:28;;;;;;;7.80;2.35;;;;;;;15.78;93.32;100727.81;5032233;28;20190;-65
2023/09/12 05:51:54;;;;;;;4.80;2.90;;;;;;;15.78;93.13;100720.00;5050172;28;20031;-69
2023/09/12 05:54:19;;;;;;;6.53;3.22;;;;;;;15.88;92.60;100719.34;5050127;28;20040;-67
2023/09/12 05:56:45;;;;;;;5.53;3.05;;;;;;;15.83;93.34;100705.38;5050287;28;20033;-67
2023/09/12 05:59:10;;;;;;;5.63;2.92;;;;;;;16.07;93.22;100717.09;5050037;28;20052;-68
2023/09/12 06:01:36;;;;;;;11.02;2.83;;;;;;;16.19;92.66;100725.13;5050112;28;20047;-70
2023/09/12 06:04:01;;;;;;;5.68;2.55;;;;;;;16.34;92.49;100717.59;5049711;28;20025;-70
2023/09/12 06:06:27;;;;;;;3.25;2.25;;;;;;;16.35;91.74;100697.63;5049212;28;20386;-71
2023/09/12 06:08:53;;;;;;;6.25;2.35;;;;;;;16.70;91.22;100719.88;5050073;28;20025;-68
2023/09/12 06:11:19;;;;;;;5.10;2.20;;;;;;;16.90;90.54;100723.69;5049925;28;20025;-67
2023/09/12 06:13:44;;;;;;;8.73;2.78;;;;;;;17.01;90.42;100718.69;5050069;28;20025;-68
2023/09/12 06:16:09;;;;;;;4.35;2.30;;;;;;;17.17;89.59;100726.72;5049928;28;20032;-67
2023/09/12 06:18:35;;;;;;;8.02;2.58;;;;;;;17.29;89.40;100721.66;5049515;28;20530;-70
2023/09/12 06:21:06;;;;;;;5.82;2.20;;;;;;;17.43;88.16;100725.34;5049962;28;20021;-67
2023/09/12 06:23:31;;;;;;;14.57;2.60;;;;;;;17.44;88.75;100726.22;5049915;28;20487;-65
2023/09/12 06:25:57;;;;;;;3.30;2.20;;;;;;;17.61;88.40;100735.13;5049909;28;20181;-65
2023/09/12 06:28:26;;;;;;;5.63;2.30;;;;;;;17.81;87.30;100729.28;5049836;28;20061;-64
2023/09/12 06:30:51;;;;;;;3.75;2.33;;;;;;;17.95;87.05;100727.69;5050102;28;20082;-68
2023/09/12 06:33:17;;;;;;;6.82;2.38;;;;;;;18.11;86.92;100728.75;5032050;28;20431;-65
2023/09/12 06:35:42;;;;;;;4.85;2.60;;;;;;;18.13;85.97;100713.09;5049943;28;20033;-70
2023/09/12 06:38:07;;;;;;;5.78;2.33;;;;;;;18.40;85.24;100733.34;5049858;28;20072;-65
2023/09/12 06:40:33;;;;;;;4.70;2.35;;;;;;;18.52;84.29;100737.84;5049391;28;20381;-66
2023/09/12 06:42:58;;;;;;;3.70;2.10;;;;;;;18.55;85.24;100729.13;5049803;28;20037;-66
2023/09/12 06:45:24;;;;;;;7.32;2.75;;;;;;;18.73;84.97;100733.66;5049583;28;20029;-65
2023/09/12 06:47:49;;;;;;;4.30;2.13;;;;;;;18.85;84.26;100715.41;5049384;28;20025;-66
2023/09/12 06:50:15;;;;;;;7.13;2.20;;;;;;;19.10;83.00;100731.28;5049424;28;20024;-69
2023/09/12 06:52:40;;;;;;;3.13;2.00;;;;;;;19.20;82.91;100730.50;5049457;28;20024;-65
2023/09/12 06:55:07;;;;;;;6.45;2.38;;;;;;;18.79;84.07;100676.16;5049384;28;20037;-68
2023/09/12 06:57:33;;;;;;;8.02;2.20;;;;;;;19.10;84.80;100736.53;4997543;28;20067;-68
2023/09/12 06:59:58;;;;;;;6.72;2.38;;;;;;;19.28;83.53;100738.41;5049863;28;20484;-66
2023/09/12 07:02:23;;;;;;;6.88;2.17;;;;;;;19.41;82.53;100728.84;5049343;28;20025;-65
2023/09/12 07:04:49;;;;;;;8.52;2.30;;;;;;;19.53;82.41;100730.66;5049516;28;20047;-69
2023/09/12 07:07:15;;;;;;;5.68;1.80;;;;;;;19.67;81.27;100726.34;5049382;28;20029;-67
2023/09/12 07:09:40;;;;;;;13.90;3.05;;;;;;;19.85;80.08;100730.81;5049300;28;20469;-68
2023/09/12 07:12:06;;;;;;;9.85;2.33;;;;;;;19.98;80.32;100734.31;5049419;28;20024;-65
2023/09/12 07:14:33;;;;;;;6.18;2.05;;;;;;;20.13;79.90;100732.63;5031693;28;20040;-66
2023/09/12 07:16:58;;;;;;;6.60;2.05;;;;;;;20.15;80.75;100741.34;5049636;28;20032;-71
2023/09/12 07:19:24;;;;;;;10.63;2.13;;;;;;;20.19;81.79;100728.25;5053388;28;20025;-64
2023/09/12 07:21:49;;;;;;;7.15;2.10;;;;;;;19.83;79.34;100660.94;5051914;28;20112;-66
2023/09/12 07:24:14;;;;;;;4.80;2.03;;;;;;;20.44;78.76;100723.03;5052446;28;20051;-70
2023/09/12 07:26:40;;;;;;;3.40;1.92;;;;;;;20.64;76.69;100715.16;5052421;28;20024;-65
2023/09/12 07:29:05;;;;;;;3.53;1.70;;;;;;;20.38;77.24;100723.03;5052256;28;20024;-66
2023/09/12 07:31:31;;;;;;;4.53;2.08;;;;;;;20.08;80.39;100677.56;5051645;28;20492;-67
2023/09/12 07:33:57;;;;;;;6.88;1.90;;;;;;;20.25;81.67;100721.25;5042886;28;20029;-65
2023/09/12 07:36:22;;;;;;;4.15;1.80;;;;;;;20.24;79.52;100727.38;5052202;28;20021;-66
2023/09/12 07:38:48;;;;;;;6.45;1.85;;;;;;;20.35;79.28;100721.28;5052286;28;20099;-67
2023/09/12 07:41:13;;;;;;;3.15;1.85;;;;;;;20.43;77.12;100728.28;5052027;28;20028;-67
2023/09/12 07:43:40;;;;;;;3.92;1.60;;;;;;;20.46;76.94;100718.66;5051926;28;20029;-67
2023/09/12 07:46:05;;;;;;;4.40;1.75;;;;;;;20.60;76.17;100723.91;5052023;28;20132;-67
2023/09/12 07:48:31;;;;;;;5.30;2.00;;;;;;;20.71;75.91;100718.69;5052088;28;20536;-65
2023/09/12 07:50:56;;;;;;;9.68;2.38;;;;;;;20.79;77.17;100718.69;5052036;28;20051;-67
2023/09/12 07:53:22;;;;;;;4.82;2.40;;;;;;;20.88;75.72;100717.78;5052450;28;20036;-67
2023/09/12 07:55:48;;;;;;;4.00;1.60;;;;;;;21.04;75.30;100709.00;5052081;28;20033;-68
2023/09/12 07:58:24;;;;;;;5.63;1.65;;;;;;;21.18;77.01;100711.59;5046454;28;20049;-68
2023/09/12 08:00:49;;;;;;;4.28;1.85;;;;;;;21.35;72.07;100703.66;5037419;28;20513;-69
2023/09/12 08:03:15;;;;;;;4.53;1.73;;;;;;;21.52;71.54;100710.59;5047874;28;20029;-68
2023/09/12 08:05:40;;;;;;;4.43;1.75;;;;;;;21.45;71.40;100702.72;5051377;28;20043;-68
2023/09/12 08:08:06;;;;;;;2.83;1.75;;;;;;;21.61;72.99;100702.72;5051543;28;20033;-67
2023/09/12 08:10:31;;;;;;;6.45;1.83;;;;;;;21.65;71.24;100697.41;5051582;28;20429;-65
2023/09/12 08:12:57;;;;;;;5.93;1.70;;;;;;;21.88;72.26;100704.31;5051183;28;20378;-67
2023/09/12 08:15:23;;;;;;;5.60;1.60;;;;;;;21.81;68.85;100695.56;5051167;28;20020;-65
2023/09/12 08:17:51;;;;;;;5.97;1.80;;;;;;;21.97;69.72;100692.88;5051690;28;20029;-66
2023/09/12 08:20:17;;;;;;;3.07;1.80;;;;;;;22.11;67.90;100711.19;5051795;28;20025;-67
2023/09/12 08:22:43;;;;;;;6.00;2.30;;;;;;;22.12;67.64;100682.22;5051131;28;20293;-66
2023/09/12 08:25:09;;;;;;;7.78;1.90;;;;;;;22.54;65.12;100704.72;5016205;28;20045;-66
2023/09/12 08:27:35;;;;;;;4.70;1.85;;;;;;;22.57;66.60;100697.69;5051330;28;20033;-66
2023/09/12 08:30:01;;;;;;;3.95;1.80;;;;;;;22.20;63.82;100631.34;5049482;28;20037;-67
2023/09/12 08:32:27;;;;;;;3.55;1.65;;;;;;;22.69;62.90;100696.72;5047558;28;20750;-65
2023/09/12 08:34:52;;;;;;;4.57;2.00;;;;;;;22.84;62.09;100693.06;5039857;28;20037;-66
2023/09/12 08:37:17;;;;;;;3.75;1.77;;;;;;;22.99;64.27;100696.38;5050253;28;20024;-67
2023/09/12 08:39:45;;;;;;;4.13;1.73;;;;;;;22.93;65.60;100687.69;5041477;28;20132;-65
2023/09/12 08:42:15;;;;;;;3.20;1.77;;;;;;;22.61;65.67;100595.91;5046367;28;20035;-67
2023/09/12 08:44:42;;;;;;;2.67;1.60;;;;;;;22.96;63.47;100686.78;5048658;28;20044;-67
2023/09/12 08:47:09;;;;;;;5.75;1.73;;;;;;;22.51;65.28;100613.53;5051080;28;20032;-65
2023/09/12 08:49:37;;;;;;;4.40;1.75;;;;;;;23.08;61.73;100662.06;5050581;28;20056;-67
2023/09/12 08:52:03;;;;;;;3.70;1.50;;;;;;;23.23;61.80;100671.59;5051186;28;20063;-66
2023/09/12 08:54:29;;;;;;;4.80;1.88;;;;;;;22.90;62.32;100571.00;5050755;28;20032;-67
2023/09/12 08:56:55;;;;;;;4.35;1.63;;;;;;;23.64;59.46;100664.00;5032348;28;20511;-65
2023/09/12 08:59:20;;;;;;;4.55;1.60;;;;;;;23.85;57.35;100668.97;5050502;28;20029;-66
2023/09/12 09:01:46;;;;;;;3.35;1.80;;;;;;;23.92;58.16;100653.97;5050451;28;20112;-65
2023/09/12 09:04:12;;;;;;;3.13;2.00;;;;;;;24.14;58.19;100667.69;5049906;28;20037;-66
2023/09/12 09:06:40;;;;;;;4.97;1.70;;;;;;;24.26;60.93;100663.97;5050263;28;20032;-67
2023/09/12 09:09:07;;;;;;;7.63;1.83;;;;;;;24.04;62.60;100598.38;5050290;28;20052;-71
2023/09/12 09:11:34;;;;;;;3.88;1.48;;;;;;;24.58;57.14;100659.03;5049858;28;20028;-66
2023/09/12 09:14:02;;;;;;;7.18;1.90;;;;;;;24.35;58.55;100589.94;5050330;28;20461;-64
2023/09/12 09:16:28;;;;;;;4.88;1.60;;;;;;;24.79;55.26;100634.91;5045013;28;20026;-66
2023/09/12 09:18:55;;;;;;;3.15;1.73;;;;;;;24.86;55.74;100646.19;5049977;28;20032;-64
2023/09/12 09:21:26;;;;;;;5.50;1.75;;;;;;;25.10;53.17;100655.41;5050663;28;20057;-65
2023/09/12 09:23:53;;;;;;;4.88;1.63;;;;;;;25.20;52.39;100653.47;5049485;28;20041;-66
2023/09/12 09:26:19;;;;;;;4.47;1.65;;;;;;;24.96;55.20;100650.41;5050175;28;20067;-65
2023/09/12 09:29:00;;;;;;;6.05;1.77;;;;;;;24.25;54.38;100585.75;5050293;28;20068;-67
2023/09/12 09:31:25;;;;;;;8.15;1.98;;;;;;;24.91;55.44;100646.13;5050222;28;20025;-66
2023/09/12 09:33:52;;;;;;;5.53;1.92;;;;;;;25.14;58.11;100646.53;5050223;28;20098;-67
2023/09/12 09:36:17;;;;;;;3.92;1.73;;;;;;;25.27;52.95;100641.88;5050010;28;20037;-66
2023/09/12 09:38:43;;;;;;;6.13;1.90;;;;;;;25.43;53.69;100645.06;5049860;28;20037;-65
2023/09/12 09:41:09;;;;;;;4.68;1.80;;;;;;;25.47;54.02;100614.13;5049866;28;20021;-64
2023/09/12 09:43:35;;;;;;;5.38;1.92;;;;;;;25.81;55.55;100629.25;5049960;28;20037;-65
2023/09/12 09:46:02;;;;;;;5.65;1.85;;;;;;;26.01;54.19;100641.97;5048648;28;20447;-67
2023/09/12 09:48:28;;;;;;;4.85;1.92;;;;;;;26.20;50.89;100633.63;5049933;28;20031;-64
2023/09/12 09:51:00;;;;;;;4.13;1.92;;;;;;;26.38;49.92;100632.25;5050098;28;20020;-64
2023/09/12 09:53:30;;;;;;;3.28;1.60;;;;;;;26.56;52.20;100638.84;5050009;28;20037;-67
2023/09/12 09:56:12;;;;;;;3.13;1.80;;;;;;;26.73;47.64;100622.47;5062193;28;20065;-65
2023/09/12 09:58:52;;;;;;;4.10;2.00;;;;;;;26.88;47.08;100632.69;5047057;28;20508;-71
2023/09/12 10:01:22;;;;;;;5.22;1.92;;;;;;;26.90;47.19;100622.91;5048751;28;20029;-67
2023/09/12 10:03:50;;;;;;;3.10;1.90;;;;;;;27.01;44.60;100625.25;5047358;28;20029;-67
2023/09/12 10:06:17;;;;;;;3.47;1.73;;;;;;;27.10;43.76;100614.41;5049941;28;20021;-65
2023/09/12 10:08:46;;;;;;;6.20;2.10;;;;;;;27.21;42.21;100611.41;5049413;28;20033;-68
2023/09/12 10:11:15;;;;;;;8.23;2.07;;;;;;;27.48;42.34;100613.28;5049568;28;20032;-65
2023/09/12 10:13:49;;;;;;;5.05;2.25;;;;;;;27.67;43.41;100613.59;5049623;28;20029;-66
2023/09/12 10:16:16;;;;;;;6.65;2.22;;;;;;;27.86;41.89;100619.16;5049250;28;20033;-66
2023/09/12 10:19:15;;;;;;;7.13;2.10;;;;;;;27.93;42.49;100610.94;5011531;28;20062;-66
2023/09/12 10:21:48;;;;;;;5.33;2.07;;;;;;;27.79;42.71;100553.97;4970644;28;20085;-65
2023/09/12 10:24:15;;;;;;;5.40;2.00;;;;;;;27.81;40.16;100528.25;4977850;28;20041;-65
2023/09/12 10:26:44;;;;;;;5.68;2.35;;;;;;;28.20;39.82;100597.72;4978705;28;20023;-65
2023/09/12 10:29:12;;;;;;;5.90;1.98;;;;;;;28.11;39.12;100603.31;4977426;28;20457;-65
2023/09/12 10:31:39;;;;;;;4.70;1.90;;;;;;;27.81;38.62;100545.03;4980013;28;20545;-63
2023/09/12 10:34:08;;;;;;;9.85;2.47;;;;;;;28.33;36.58;100605.25;4978258;28;20567;-66
2023/09/12 10:36:38;;;;;;;3.50;1.92;;;;;;;28.05;34.96;100547.78;4976883;28;20033;-65
2023/09/12 10:39:05;;;;;;;5.35;2.22;;;;;;;28.20;34.98;100584.44;4977522;28;20039;-65
2023/09/12 10:41:31;;;;;;;6.22;2.78;;;;;;;28.03;35.51;100578.81;4978938;28;20066;-64
2023/09/12 10:43:57;;;;;;;8.02;2.55;;;;;;;27.96;34.67;100587.88;4977256;28;20478;-67
2023/09/12 10:46:23;;;;;;;4.72;2.35;;;;;;;27.76;36.19;100576.16;4979092;28;20042;-66
2023/09/12 10:48:49;;;;;;;6.82;2.47;;;;;;;27.80;34.61;100574.28;4986451;28;20026;-66
2023/09/12 10:51:17;;;;;;;4.93;2.63;;;;;;;27.62;35.04;100578.41;4982544;28;20050;-65
2023/09/12 10:53:50;;;;;;;4.93;2.40;;;;;;;27.67;36.38;100573.81;4952614;28;20530;-65
2023/09/12 10:56:18;;;;;;;6.43;2.40;;;;;;;27.80;35.39;100572.47;4952633;28;20051;-66
2023/09/12 10:59:12;;;;;;;11.70;2.85;;;;;;;27.81;35.76;100568.03;4981213;28;20145;-65
2023/09/12 11:01:39;;;;;;;3.92;2.30;;;;;;;27.46;36.08;100512.59;4998014;28;20023;-65
2023/09/12 11:04:27;;;;;;;6.90;2.35;;;;;;;28.04;35.11;100570.81;5000229;28;20605;-67
2023/09/12 11:06:53;;;;;;;4.93;2.63;;;;;;;27.91;35.83;100566.81;5001564;28;20049;-65
2023/09/12 11:09:19;;;;;;;7.85;2.35;;;;;;;28.01;36.30;100565.56;5000385;28;20034;-65
2023/09/12 11:12:05;;;;;;;5.93;2.70;;;;;;;28.20;36.43;100557.88;5000553;28;20088;-65
2023/09/12 11:14:31;;;;;;;4.80;2.20;;;;;;;28.10;36.57;100548.50;5000955;28;20091;-66
2023/09/12 11:17:06;;;;;;;8.18;2.50;;;;;;;28.43;37.02;100555.34;5000077;28;20096;-66
2023/09/12 11:19:44;;;;;;;4.80;1.98;;;;;;;28.62;36.90;100547.56;4999702;28;20105;-64
2023/09/12 11:22:27;;;;;;;6.20;2.33;;;;;;;28.52;36.77;100534.59;4942149;28;20049;-66
2023/09/12 11:24:55;;;;;;;5.75;2.55;;;;;;;28.73;36.79;100545.38;5028361;28;20445;-64